sensor_id;sensor_type;location;lat;lon;timestamp;pressure;altitude;pressure_sealevel;temperature;humidity
59170;BME280;52474;52.236;5.114;2022-07-17T00:01:33;102813.38;;;11.66;100.00
59170;BME280;52474;52.236;5.114;2022-07-17T00:03:58;102781.31;;;11.55;100.00
59170;BME280;52474;52.236;5.114;2022-07-17T00:06:24;102815.56;;;11.74;100.00
59170;BME280;52474;52.236;5.114;2022-07-17T00:08:50;102813.63;;;11.77;100.00
59170;BME280;52474;52.236;5.114;2022-07-17T00:11:15;102813.38;;;11.66;100.00
59170;BME280;52474;52.236;5.114;2022-07-17T00:13:41;102809.56;;;11.56;100.00
59170;BME280;52474;52.236;5.114;2022-07-17T00:16:07;102785.13;;;11.35;100.00
59170;BME280;52474;52.236;5.114;2022-07-17T00:18:33;102812.56;;;11.50;100.00
59170;BME280;52474;52.236;5.114;2022-07-17T00:20:59;102809.38;;;11.59;100.00
59170;BME280;52474;52.236;5.114;2022-07-17T00:23:24;102814.19;;;11.52;100.00
59170;BME280;52474;52.236;5.114;2022-07-17T00:25:50;102792.13;;;11.36;100.00
59170;BME280;52474;52.236;5.114;2022-07-17T00:28:15;102814.72;;;11.43;100.00
59170;BME280;52474;52.236;5.114;2022-07-17T00:30:41;102803.53;;;11.38;100.00
59170;BME280;52474;52.236;5.114;2022-07-17T00:33:07;102814.91;;;11.40;100.00
59170;BME280;52474;52.236;5.114;2022-07-17T00:35:33;102806.50;;;11.32;100.00
59170;BME280;52474;52.236;5.114;2022-07-17T00:37:58;102797.91;;;11.12;100.00
59170;BME280;52474;52.236;5.114;2022-07-17T00:40:24;102808.53;;;11.12;100.00
59170;BME280;52474;52.236;5.114;2022-07-17T00:42:50;102817.41;;;11.11;100.00
59170;BME280;52474;52.236;5.114;2022-07-17T00:45:16;102819.03;;;11.14;100.00
59170;BME280;52474;52.236;5.114;2022-07-17T00:47:54;102815.94;;;11.22;100.00
59170;BME280;52474;52.236;5.114;2022-07-17T00:50:23;102823.81;;;11.23;100.00
59170;BME280;52474;52.236;5.114;2022-07-17T00:52:50;102792.50;;;11.14;100.00
59170;BME280;52474;52.236;5.114;2022-07-17T00:55:17;102825.19;;;11.30;100.00
59170;BME280;52474;52.236;5.114;2022-07-17T00:57:46;102821.56;;;11.31;100.00
59170;BME280;52474;52.236;5.114;2022-07-17T01:00:12;102824.34;;;11.30;100.00
59170;BME280;52474;52.236;5.114;2022-07-17T01:02:38;102815.69;;;11.42;100.00
59170;BME280;52474;52.236;5.114;2022-07-17T01:05:05;102822.16;;;11.52;100.00
59170;BME280;52474;52.236;5.114;2022-07-17T01:07:32;102796.06;;;11.45;100.00
59170;BME280;52474;52.236;5.114;2022-07-17T01:09:58;102794.44;;;11.42;100.00
59170;BME280;52474;52.236;5.114;2022-07-17T01:12:24;102810.69;;;11.52;100.00
59170;BME280;52474;52.236;5.114;2022-07-17T01:14:52;102810.84;;;11.49;100.00
59170;BME280;52474;52.236;5.114;2022-07-17T01:17:17;102814.78;;;11.42;100.00
59170;BME280;52474;52.236;5.114;2022-07-17T01:19:43;102815.16;;;11.35;100.00
59170;BME280;52474;52.236;5.114;2022-07-17T01:22:09;102808.81;;;11.38;100.00
59170;BME280;52474;52.236;5.114;2022-07-17T01:24:39;102782.75;;;11.30;100.00
59170;BME280;52474;52.236;5.114;2022-07-17T01:27:05;102805.13;;;11.41;100.00
59170;BME280;52474;52.236;5.114;2022-07-17T01:29:30;102798.41;;;11.35;100.00
59170;BME280;52474;52.236;5.114;2022-07-17T01:31:56;102785.28;;;11.32;100.00
59170;BME280;52474;52.236;5.114;2022-07-17T01:34:22;102791.69;;;11.44;100.00
59170;BME280;52474;52.236;5.114;2022-07-17T01:36:47;102806.31;;;11.51;100.00
59170;BME280;52474;52.236;5.114;2022-07-17T01:39:13;102796.22;;;11.42;100.00
59170;BME280;52474;52.236;5.114;2022-07-17T01:41:39;102785.41;;;11.14;100.00
59170;BME280;52474;52.236;5.114;2022-07-17T01:44:05;102801.84;;;10.89;100.00
59170;BME280;52474;52.236;5.114;2022-07-17T01:46:32;102798.59;;;10.84;100.00
59170;BME280;52474;52.236;5.114;2022-07-17T01:48:58;102797.13;;;10.94;100.00
59170;BME280;52474;52.236;5.114;2022-07-17T01:51:27;102790.66;;;11.00;100.00
59170;BME280;52474;52.236;5.114;2022-07-17T01:53:53;102796.13;;;11.13;100.00
59170;BME280;52474;52.236;5.114;2022-07-17T01:56:18;102793.53;;;11.27;100.00
59170;BME280;52474;52.236;5.114;2022-07-17T01:58:45;102791.47;;;11.32;100.00
59170;BME280;52474;52.236;5.114;2022-07-17T02:01:11;102785.13;;;11.35;100.00
59170;BME280;52474;52.236;5.114;2022-07-17T02:03:36;102795.56;;;11.38;100.00
59170;BME280;52474;52.236;5.114;2022-07-17T02:06:02;102791.19;;;11.37;100.00
59170;BME280;52474;52.236;5.114;2022-07-17T02:08:28;102778.81;;;11.22;100.00
59170;BME280;52474;52.236;5.114;2022-07-17T02:10:53;102801.31;;;11.14;100.00
59170;BME280;52474;52.236;5.114;2022-07-17T02:13:19;102796.13;;;11.13;100.00
59170;BME280;52474;52.236;5.114;2022-07-17T02:15:44;102790.56;;;11.17;100.00
59170;BME280;52474;52.236;5.114;2022-07-17T02:18:10;102796.00;;;11.30;100.00
59170;BME280;52474;52.236;5.114;2022-07-17T02:20:36;102787.53;;;11.24;100.00
59170;BME280;52474;52.236;5.114;2022-07-17T02:23:01;102800.09;;;11.36;100.00
59170;BME280;52474;52.236;5.114;2022-07-17T02:25:27;102786.91;;;11.34;100.00
59170;BME280;52474;52.236;5.114;2022-07-17T02:27:55;102802.81;;;11.34;100.00
59170;BME280;52474;52.236;5.114;2022-07-17T02:30:21;102808.06;;;11.36;100.00
59170;BME280;52474;52.236;5.114;2022-07-17T02:32:46;102812.09;;;11.27;100.00
59170;BME280;52474;52.236;5.114;2022-07-17T02:35:13;102808.00;;;11.06;100.00
59170;BME280;52474;52.236;5.114;2022-07-17T02:37:40;102791.16;;;10.91;100.00
59170;BME280;52474;52.236;5.114;2022-07-17T02:40:08;102784.38;;;10.85;100.00
59170;BME280;52474;52.236;5.114;2022-07-17T02:42:33;102802.34;;;10.96;100.00
59170;BME280;52474;52.236;5.114;2022-07-17T02:44:59;102803.22;;;10.96;100.00
59170;BME280;52474;52.236;5.114;2022-07-17T02:47:30;102763.47;;;10.81;100.00
59170;BME280;52474;52.236;5.114;2022-07-17T02:49:56;102804.75;;;11.01;100.00
59170;BME280;52474;52.236;5.114;2022-07-17T02:52:22;102796.78;;;10.85;100.00
59170;BME280;52474;52.236;5.114;2022-07-17T02:54:49;102806.06;;;10.60;100.00
59170;BME280;52474;52.236;5.114;2022-07-17T02:57:15;102776.72;;;10.31;100.00
59170;BME280;52474;52.236;5.114;2022-07-17T02:59:41;102780.22;;;10.32;100.00
59170;BME280;52474;52.236;5.114;2022-07-17T03:02:07;102819.97;;;10.48;100.00
59170;BME280;52474;52.236;5.114;2022-07-17T03:04:33;102808.94;;;10.40;100.00
59170;BME280;52474;52.236;5.114;2022-07-17T03:06:58;102808.78;;;10.43;100.00
59170;BME280;52474;52.236;5.114;2022-07-17T03:09:24;102765.56;;;10.25;100.00
59170;BME280;52474;52.236;5.114;2022-07-17T03:11:50;102819.31;;;10.60;100.00
59170;BME280;52474;52.236;5.114;2022-07-17T03:14:16;102823.13;;;10.72;100.00
59170;BME280;52474;52.236;5.114;2022-07-17T03:16:41;102793.44;;;10.65;100.00
59170;BME280;52474;52.236;5.114;2022-07-17T03:19:07;102783.00;;;10.62;100.00
59170;BME280;52474;52.236;5.114;2022-07-17T03:21:33;102789.34;;;10.60;100.00
59170;BME280;52474;52.236;5.114;2022-07-17T03:23:59;102818.59;;;10.74;100.00
59170;BME280;52474;52.236;5.114;2022-07-17T03:26:24;102821.66;;;10.82;100.00
59170;BME280;52474;52.236;5.114;2022-07-17T03:28:50;102792.34;;;10.69;100.00
59170;BME280;52474;52.236;5.114;2022-07-17T03:31:15;102813.22;;;10.76;100.00
59170;BME280;52474;52.236;5.114;2022-07-17T03:33:42;102797.03;;;10.48;100.00
59170;BME280;52474;52.236;5.114;2022-07-17T03:36:07;102813.97;;;10.62;100.00
59170;BME280;52474;52.236;5.114;2022-07-17T03:38:33;102802.81;;;10.39;100.00
59170;BME280;52474;52.236;5.114;2022-07-17T03:40:59;102760.16;;;9.93;100.00
59170;BME280;52474;52.236;5.114;2022-07-17T03:43:25;102827.19;;;10.28;100.00
59170;BME280;52474;52.236;5.114;2022-07-17T03:45:50;102835.06;;;10.30;100.00
59170;BME280;52474;52.236;5.114;2022-07-17T03:48:16;102828.09;;;10.27;100.00
59170;BME280;52474;52.236;5.114;2022-07-17T03:50:42;102798.66;;;10.16;100.00
59170;BME280;52474;52.236;5.114;2022-07-17T03:53:08;102813.88;;;10.30;100.00
59170;BME280;52474;52.236;5.114;2022-07-17T03:55:34;102838.13;;;10.56;100.00
59170;BME280;52474;52.236;5.114;2022-07-17T03:58:00;102840.75;;;10.56;100.00
59170;BME280;52474;52.236;5.114;2022-07-17T04:00:26;102844.56;;;10.67;100.00
59170;BME280;52474;52.236;5.114;2022-07-17T04:02:52;102834.41;;;10.76;100.00
59170;BME280;52474;52.236;5.114;2022-07-17T04:05:18;102815.50;;;10.66;100.00
59170;BME280;52474;52.236;5.114;2022-07-17T04:07:44;102847.06;;;10.86;100.00
59170;BME280;52474;52.236;5.114;2022-07-17T04:10:12;102842.56;;;10.88;100.00
59170;BME280;52474;52.236;5.114;2022-07-17T04:12:39;102842.88;;;10.82;100.00
59170;BME280;52474;52.236;5.114;2022-07-17T04:15:06;102822.94;;;10.59;100.00
59170;BME280;52474;52.236;5.114;2022-07-17T04:17:32;102832.34;;;10.65;100.00
59170;BME280;52474;52.236;5.114;2022-07-17T04:19:58;102833.09;;;10.67;100.00
59170;BME280;52474;52.236;5.114;2022-07-17T04:22:23;102815.03;;;10.58;100.00
59170;BME280;52474;52.236;5.114;2022-07-17T04:24:50;102845.03;;;10.76;100.00
59170;BME280;52474;52.236;5.114;2022-07-17T04:27:16;102830.28;;;10.70;100.00
59170;BME280;52474;52.236;5.114;2022-07-17T04:29:42;102838.16;;;10.71;100.00
59170;BME280;52474;52.236;5.114;2022-07-17T04:32:08;102852.88;;;10.77;100.00
59170;BME280;52474;52.236;5.114;2022-07-17T04:34:34;102829.84;;;10.62;100.00
59170;BME280;52474;52.236;5.114;2022-07-17T04:37:01;102852.97;;;10.76;100.00
59170;BME280;52474;52.236;5.114;2022-07-17T04:39:27;102841.91;;;10.67;100.00
59170;BME280;52474;52.236;5.114;2022-07-17T04:41:54;102830.22;;;10.71;100.00
59170;BME280;52474;52.236;5.114;2022-07-17T04:44:19;102831.41;;;10.82;100.00
59170;BME280;52474;52.236;5.114;2022-07-17T04:46:45;102825.03;;;10.86;100.00
59170;BME280;52474;52.236;5.114;2022-07-17T04:49:11;102796.19;;;10.80;100.00
59170;BME280;52474;52.236;5.114;2022-07-17T04:51:37;102821.59;;;11.00;100.00
59170;BME280;52474;52.236;5.114;2022-07-17T04:54:03;102819.28;;;11.09;100.00
59170;BME280;52474;52.236;5.114;2022-07-17T04:56:29;102819.97;;;11.13;100.00
59170;BME280;52474;52.236;5.114;2022-07-17T04:58:55;102805.00;;;11.12;100.00
59170;BME280;52474;52.236;5.114;2022-07-17T05:01:20;102821.75;;;11.28;100.00
59170;BME280;52474;52.236;5.114;2022-07-17T05:03:46;102820.38;;;11.37;100.00
59170;BME280;52474;52.236;5.114;2022-07-17T05:06:12;102811.69;;;11.49;100.00
59170;BME280;52474;52.236;5.114;2022-07-17T05:08:38;102803.63;;;11.67;100.00
59170;BME280;52474;52.236;5.114;2022-07-17T05:11:03;102788.06;;;11.91;100.00
59170;BME280;52474;52.236;5.114;2022-07-17T05:13:29;102796.00;;;12.21;100.00
59170;BME280;52474;52.236;5.114;2022-07-17T05:15:55;102793.72;;;12.58;100.00
59170;BME280;52474;52.236;5.114;2022-07-17T05:18:21;102786.16;;;12.93;100.00
59170;BME280;52474;52.236;5.114;2022-07-17T05:20:46;102798.41;;;13.23;100.00
59170;BME280;52474;52.236;5.114;2022-07-17T05:23:12;102771.56;;;13.40;100.00
59170;BME280;52474;52.236;5.114;2022-07-17T05:25:38;102769.06;;;13.77;100.00
59170;BME280;52474;52.236;5.114;2022-07-17T05:28:04;102796.59;;;14.16;100.00
59170;BME280;52474;52.236;5.114;2022-07-17T05:30:29;102801.19;;;14.14;100.00
59170;BME280;52474;52.236;5.114;2022-07-17T05:32:55;102797.75;;;14.12;100.00
59170;BME280;52474;52.236;5.114;2022-07-17T05:35:21;102798.81;;;14.09;100.00
59170;BME280;52474;52.236;5.114;2022-07-17T05:37:47;102796.59;;;14.03;100.00
59170;BME280;52474;52.236;5.114;2022-07-17T05:40:13;102790.53;;;14.01;100.00
59170;BME280;52474;52.236;5.114;2022-07-17T05:42:39;102810.22;;;13.99;100.00
59170;BME280;52474;52.236;5.114;2022-07-17T05:45:05;102795.31;;;13.83;100.00
59170;BME280;52474;52.236;5.114;2022-07-17T05:47:31;102806.34;;;13.77;100.00
59170;BME280;52474;52.236;5.114;2022-07-17T05:49:57;102825.22;;;13.87;100.00
59170;BME280;52474;52.236;5.114;2022-07-17T05:52:23;102825.16;;;13.88;100.00
59170;BME280;52474;52.236;5.114;2022-07-17T05:54:48;102814.38;;;13.90;100.00
59170;BME280;52474;52.236;5.114;2022-07-17T05:57:14;102791.91;;;13.94;100.00
59170;BME280;52474;52.236;5.114;2022-07-17T05:59:40;102819.91;;;14.12;100.00
59170;BME280;52474;52.236;5.114;2022-07-17T06:02:06;102834.53;;;14.20;100.00
59170;BME280;52474;52.236;5.114;2022-07-17T06:04:32;102841.81;;;14.30;100.00
59170;BME280;52474;52.236;5.114;2022-07-17T06:06:58;102840.06;;;14.42;100.00
59170;BME280;52474;52.236;5.114;2022-07-17T06:09:24;102839.66;;;14.61;100.00
59170;BME280;52474;52.236;5.114;2022-07-17T06:11:50;102854.19;;;14.70;100.00
59170;BME280;52474;52.236;5.114;2022-07-17T06:14:15;102844.00;;;14.88;100.00
59170;BME280;52474;52.236;5.114;2022-07-17T06:16:41;102837.78;;;15.00;100.00
59170;BME280;52474;52.236;5.114;2022-07-17T06:19:07;102832.47;;;15.48;100.00
59170;BME280;52474;52.236;5.114;2022-07-17T06:21:33;102814.22;;;19.01;100.00
59170;BME280;52474;52.236;5.114;2022-07-17T06:23:58;102849.09;;;22.36;88.97
59170;BME280;52474;52.236;5.114;2022-07-17T06:26:24;102847.94;;;24.14;72.41
59170;BME280;52474;52.236;5.114;2022-07-17T06:28:50;102850.06;;;25.91;69.18
59170;BME280;52474;52.236;5.114;2022-07-17T06:31:17;102853.41;;;26.61;62.31
59170;BME280;52474;52.236;5.114;2022-07-17T06:33:43;102846.13;;;26.83;53.30
59170;BME280;52474;52.236;5.114;2022-07-17T06:36:09;102837.69;;;26.92;54.45
59170;BME280;52474;52.236;5.114;2022-07-17T06:38:34;102860.31;;;28.35;54.92
59170;BME280;52474;52.236;5.114;2022-07-17T06:41:01;102859.84;;;29.08;49.66
59170;BME280;52474;52.236;5.114;2022-07-17T06:43:27;102862.22;;;29.38;51.99
59170;BME280;52474;52.236;5.114;2022-07-17T06:45:53;102854.91;;;29.78;48.52
59170;BME280;52474;52.236;5.114;2022-07-17T06:48:20;102860.53;;;30.30;44.50
59170;BME280;52474;52.236;5.114;2022-07-17T06:50:46;102846.88;;;30.10;42.06
59170;BME280;52474;52.236;5.114;2022-07-17T06:53:12;102850.69;;;28.74;44.97
59170;BME280;52474;52.236;5.114;2022-07-17T06:55:38;102847.28;;;30.27;42.66
59170;BME280;52474;52.236;5.114;2022-07-17T06:58:05;102845.00;;;30.10;42.94
59170;BME280;52474;52.236;5.114;2022-07-17T07:00:31;102844.31;;;31.25;42.20
59170;BME280;52474;52.236;5.114;2022-07-17T07:02:57;102837.28;;;29.67;41.27
59170;BME280;52474;52.236;5.114;2022-07-17T07:05:22;102849.19;;;30.78;41.64
59170;BME280;52474;52.236;5.114;2022-07-17T07:07:48;102847.50;;;31.54;40.50
59170;BME280;52474;52.236;5.114;2022-07-17T07:10:14;102835.25;;;31.81;37.38
59170;BME280;52474;52.236;5.114;2022-07-17T07:12:40;102839.47;;;30.95;39.81
59170;BME280;52474;52.236;5.114;2022-07-17T07:15:07;102841.09;;;32.10;38.50
59170;BME280;52474;52.236;5.114;2022-07-17T07:17:36;102840.25;;;31.84;37.32
59170;BME280;52474;52.236;5.114;2022-07-17T07:20:03;102835.81;;;33.12;36.93
59170;BME280;52474;52.236;5.114;2022-07-17T07:22:31;102841.47;;;31.95;36.58
59170;BME280;52474;52.236;5.114;2022-07-17T07:24:56;102839.31;;;31.72;37.31
59170;BME280;52474;52.236;5.114;2022-07-17T07:27:22;102844.66;;;32.29;36.72
59170;BME280;52474;52.236;5.114;2022-07-17T07:29:47;102851.91;;;31.80;36.14
59170;BME280;52474;52.236;5.114;2022-07-17T07:32:13;102834.03;;;32.88;35.73
59170;BME280;52474;52.236;5.114;2022-07-17T07:34:39;102856.94;;;33.12;34.84
59170;BME280;52474;52.236;5.114;2022-07-17T07:37:05;102843.22;;;33.66;34.33
59170;BME280;52474;52.236;5.114;2022-07-17T07:39:31;102843.69;;;33.63;35.44
59170;BME280;52474;52.236;5.114;2022-07-17T07:41:57;102848.47;;;34.03;34.73
59170;BME280;52474;52.236;5.114;2022-07-17T07:44:23;102863.00;;;34.38;32.88
59170;BME280;52474;52.236;5.114;2022-07-17T07:46:49;102854.91;;;35.01;33.19
59170;BME280;52474;52.236;5.114;2022-07-17T07:49:15;102842.81;;;35.02;33.18
59170;BME280;52474;52.236;5.114;2022-07-17T07:51:41;102851.25;;;34.95;32.87
59170;BME280;52474;52.236;5.114;2022-07-17T07:54:07;102837.44;;;35.58;32.82
59170;BME280;52474;52.236;5.114;2022-07-17T07:56:33;102842.66;;;35.09;31.46
59170;BME280;52474;52.236;5.114;2022-07-17T07:58:59;102845.53;;;34.85;32.67
59170;BME280;52474;52.236;5.114;2022-07-17T08:01:25;102837.06;;;34.75;32.57
59170;BME280;52474;52.236;5.114;2022-07-17T08:03:50;102832.97;;;34.49;33.27
59170;BME280;52474;52.236;5.114;2022-07-17T08:06:16;102839.22;;;35.01;32.68
59170;BME280;52474;52.236;5.114;2022-07-17T08:08:42;102838.75;;;34.76;32.55
59170;BME280;52474;52.236;5.114;2022-07-17T08:11:08;102837.38;;;35.36;31.13
59170;BME280;52474;52.236;5.114;2022-07-17T08:13:33;102829.78;;;35.60;31.40
59170;BME280;52474;52.236;5.114;2022-07-17T08:15:59;102826.78;;;36.00;31.04
59170;BME280;52474;52.236;5.114;2022-07-17T08:18:26;102828.03;;;36.09;31.39
59170;BME280;52474;52.236;5.114;2022-07-17T08:20:53;102832.38;;;36.49;30.28
59170;BME280;52474;52.236;5.114;2022-07-17T08:23:19;102817.56;;;36.78;28.71
59170;BME280;52474;52.236;5.114;2022-07-17T08:25:45;102827.84;;;36.38;29.48
59170;BME280;52474;52.236;5.114;2022-07-17T08:28:13;102826.28;;;36.25;30.05
59170;BME280;52474;52.236;5.114;2022-07-17T08:30:39;102835.19;;;37.04;29.30
59170;BME280;52474;52.236;5.114;2022-07-17T08:33:07;102830.34;;;36.62;29.76
59170;BME280;52474;52.236;5.114;2022-07-17T08:35:34;102836.13;;;36.38;29.04
59170;BME280;52474;52.236;5.114;2022-07-17T08:38:00;102830.91;;;35.81;29.65
59170;BME280;52474;52.236;5.114;2022-07-17T08:40:28;102830.09;;;36.19;28.85
59170;BME280;52474;52.236;5.114;2022-07-17T08:42:56;102827.84;;;35.26;29.45
59170;BME280;52474;52.236;5.114;2022-07-17T08:45:23;102812.63;;;35.92;29.56
59170;BME280;52474;52.236;5.114;2022-07-17T08:47:51;102823.94;;;34.94;30.40
59170;BME280;52474;52.236;5.114;2022-07-17T08:50:22;102821.69;;;36.53;28.58
59170;BME280;52474;52.236;5.114;2022-07-17T08:52:48;102822.28;;;36.11;30.50
59170;BME280;52474;52.236;5.114;2022-07-17T08:55:14;102813.84;;;38.01;28.32
59170;BME280;52474;52.236;5.114;2022-07-17T08:57:42;102816.06;;;37.24;28.90
59170;BME280;52474;52.236;5.114;2022-07-17T09:00:10;102814.47;;;36.52;28.08
59170;BME280;52474;52.236;5.114;2022-07-17T09:02:38;102818.41;;;36.34;28.80
59170;BME280;52474;52.236;5.114;2022-07-17T09:05:05;102815.16;;;35.98;29.19
59170;BME280;52474;52.236;5.114;2022-07-17T09:07:31;102812.81;;;37.32;28.15
59170;BME280;52474;52.236;5.114;2022-07-17T09:09:57;102803.38;;;37.66;28.39
59170;BME280;52474;52.236;5.114;2022-07-17T09:12:28;102809.72;;;36.69;28.53
59170;BME280;52474;52.236;5.114;2022-07-17T09:14:55;102807.81;;;36.48;28.62
59170;BME280;52474;52.236;5.114;2022-07-17T09:17:22;102801.72;;;36.02;29.04
59170;BME280;52474;52.236;5.114;2022-07-17T09:19:50;102800.59;;;35.81;29.95
59170;BME280;52474;52.236;5.114;2022-07-17T09:22:17;102809.72;;;36.47;30.13
59170;BME280;52474;52.236;5.114;2022-07-17T09:24:53;102810.88;;;35.68;29.43
59170;BME280;52474;52.236;5.114;2022-07-17T09:30:02;102808.59;;;36.65;28.75
59170;BME280;52474;52.236;5.114;2022-07-17T09:32:31;102813.50;;;35.97;29.00
59170;BME280;52474;52.236;5.114;2022-07-17T09:34:59;102807.53;;;36.49;29.29
59170;BME280;52474;52.236;5.114;2022-07-17T09:37:28;102805.78;;;36.38;29.70
59170;BME280;52474;52.236;5.114;2022-07-17T09:39:54;102812.06;;;35.73;29.23
59170;BME280;52474;52.236;5.114;2022-07-17T09:42:28;102819.91;;;34.56;31.34
59170;BME280;52474;52.236;5.114;2022-07-17T09:45:07;102808.06;;;35.13;31.07
59170;BME280;52474;52.236;5.114;2022-07-17T09:47:37;102811.38;;;34.69;30.18
59170;BME280;52474;52.236;5.114;2022-07-17T09:50:05;102804.03;;;35.71;31.06
59170;BME280;52474;52.236;5.114;2022-07-17T09:52:33;102813.91;;;36.28;30.54
59170;BME280;52474;52.236;5.114;2022-07-17T09:54:59;102807.81;;;35.65;30.87
59170;BME280;52474;52.236;5.114;2022-07-17T09:57:31;102788.69;;;35.08;31.29
59170;BME280;52474;52.236;5.114;2022-07-17T10:00:05;102799.69;;;35.08;31.57
59170;BME280;52474;52.236;5.114;2022-07-17T10:02:41;102800.81;;;34.95;30.79
59170;BME280;52474;52.236;5.114;2022-07-17T10:05:10;102799.88;;;34.72;31.95
59170;BME280;52474;52.236;5.114;2022-07-17T10:07:44;102792.25;;;34.34;33.26
59170;BME280;52474;52.236;5.114;2022-07-17T10:10:14;102783.94;;;34.74;30.78
59170;BME280;52474;52.236;5.114;2022-07-17T10:12:43;102788.13;;;35.22;33.07
59170;BME280;52474;52.236;5.114;2022-07-17T10:15:09;102796.84;;;35.87;31.30
59170;BME280;52474;52.236;5.114;2022-07-17T10:17:36;102790.53;;;35.36;30.97
59170;BME280;52474;52.236;5.114;2022-07-17T10:20:02;102792.38;;;35.47;31.19
59170;BME280;52474;52.236;5.114;2022-07-17T10:22:46;102800.66;;;34.84;32.64
59170;BME280;52474;52.236;5.114;2022-07-17T10:25:14;102792.63;;;33.31;33.42
59170;BME280;52474;52.236;5.114;2022-07-17T10:27:49;102802.66;;;34.89;33.25
59170;BME280;52474;52.236;5.114;2022-07-17T10:30:27;102802.97;;;35.72;32.45
59170;BME280;52474;52.236;5.114;2022-07-17T10:32:58;102796.59;;;35.04;31.85
59170;BME280;52474;52.236;5.114;2022-07-17T10:35:26;102800.09;;;33.66;32.96
59170;BME280;52474;52.236;5.114;2022-07-17T10:37:53;102800.53;;;34.22;32.51
59170;BME280;52474;52.236;5.114;2022-07-17T10:40:24;102792.47;;;34.32;32.28
59170;BME280;52474;52.236;5.114;2022-07-17T10:45:18;102782.84;;;34.47;33.27
59170;BME280;52474;52.236;5.114;2022-07-17T10:50:43;102793.00;;;35.71;33.29
59170;BME280;52474;52.236;5.114;2022-07-17T10:53:15;102801.34;;;34.23;32.79
59170;BME280;52474;52.236;5.114;2022-07-17T10:55:48;102791.34;;;35.36;32.40
59170;BME280;52474;52.236;5.114;2022-07-17T11:08:42;102803.53;;;34.09;32.26
59170;BME280;52474;52.236;5.114;2022-07-17T11:11:09;102805.56;;;35.11;32.06
59170;BME280;52474;52.236;5.114;2022-07-17T11:13:35;102806.13;;;35.64;30.64
59170;BME280;52474;52.236;5.114;2022-07-17T11:16:00;102805.56;;;34.13;31.81
59170;BME280;52474;52.236;5.114;2022-07-17T11:18:26;102809.09;;;34.26;31.51
59170;BME280;52474;52.236;5.114;2022-07-17T11:20:53;102807.47;;;35.11;31.05
59170;BME280;52474;52.236;5.114;2022-07-17T11:23:21;102803.13;;;35.15;30.40
59170;BME280;52474;52.236;5.114;2022-07-17T11:25:54;102801.84;;;35.05;32.17
59170;BME280;52474;52.236;5.114;2022-07-17T11:28:42;102792.78;;;35.05;32.24
59170;BME280;52474;52.236;5.114;2022-07-17T11:31:25;102801.75;;;34.43;32.87
59170;BME280;52474;52.236;5.114;2022-07-17T11:34:07;102804.63;;;33.61;32.43
59170;BME280;52474;52.236;5.114;2022-07-17T11:36:43;102793.88;;;33.83;33.05
59170;BME280;52474;52.236;5.114;2022-07-17T11:39:14;102796.19;;;33.20;32.92
59170;BME280;52474;52.236;5.114;2022-07-17T11:41:43;102789.50;;;32.86;33.94
59170;BME280;52474;52.236;5.114;2022-07-17T11:44:11;102767.16;;;32.70;34.52
59170;BME280;52474;52.236;5.114;2022-07-17T11:46:42;102788.44;;;33.17;33.38
59170;BME280;52474;52.236;5.114;2022-07-17T11:49:09;102786.56;;;33.41;33.54
59170;BME280;52474;52.236;5.114;2022-07-17T11:51:42;102788.97;;;33.85;34.22
59170;BME280;52474;52.236;5.114;2022-07-17T11:54:13;102785.59;;;33.35;33.23
59170;BME280;52474;52.236;5.114;2022-07-17T11:56:40;102781.66;;;32.89;35.03
59170;BME280;52474;52.236;5.114;2022-07-17T11:59:07;102782.78;;;32.70;33.60
59170;BME280;52474;52.236;5.114;2022-07-17T12:01:41;102784.56;;;32.46;34.10
59170;BME280;52474;52.236;5.114;2022-07-17T12:04:09;102764.09;;;33.44;33.29
59170;BME280;52474;52.236;5.114;2022-07-17T12:06:35;102763.38;;;33.37;32.88
59170;BME280;52474;52.236;5.114;2022-07-17T12:09:01;102771.84;;;33.12;32.11
59170;BME280;52474;52.236;5.114;2022-07-17T12:11:27;102767.69;;;33.21;32.72
59170;BME280;52474;52.236;5.114;2022-07-17T12:13:53;102749.66;;;33.37;32.35
59170;BME280;52474;52.236;5.114;2022-07-17T12:16:29;102758.91;;;32.40;32.96
59170;BME280;52474;52.236;5.114;2022-07-17T12:19:06;102750.84;;;31.72;33.94
59170;BME280;52474;52.236;5.114;2022-07-17T12:21:46;102755.91;;;32.60;33.16
59170;BME280;52474;52.236;5.114;2022-07-17T12:24:28;102762.66;;;32.27;32.42
59170;BME280;52474;52.236;5.114;2022-07-17T12:26:56;102754.38;;;32.64;32.63
59170;BME280;52474;52.236;5.114;2022-07-17T12:29:23;102747.13;;;32.70;33.64
59170;BME280;52474;52.236;5.114;2022-07-17T12:31:49;102765.31;;;31.79;32.92
59170;BME280;52474;52.236;5.114;2022-07-17T12:34:24;102738.75;;;32.16;34.64
59170;BME280;52474;52.236;5.114;2022-07-17T12:36:50;102747.91;;;32.89;32.49
59170;BME280;52474;52.236;5.114;2022-07-17T12:39:16;102745.16;;;32.59;34.02
59170;BME280;52474;52.236;5.114;2022-07-17T12:41:41;102741.06;;;31.57;32.55
59170;BME280;52474;52.236;5.114;2022-07-17T12:44:07;102755.16;;;31.11;32.63
59170;BME280;52474;52.236;5.114;2022-07-17T12:46:33;102758.13;;;31.59;34.27
59170;BME280;52474;52.236;5.114;2022-07-17T12:48:58;102758.13;;;32.03;32.68
59170;BME280;52474;52.236;5.114;2022-07-17T12:51:24;102761.94;;;31.58;34.08
59170;BME280;52474;52.236;5.114;2022-07-17T12:53:50;102757.19;;;30.52;34.01
59170;BME280;52474;52.236;5.114;2022-07-17T12:56:16;102760.78;;;31.16;34.04
59170;BME280;52474;52.236;5.114;2022-07-17T12:58:41;102750.47;;;30.86;34.03
59170;BME280;52474;52.236;5.114;2022-07-17T13:01:07;102726.78;;;31.30;35.01
59170;BME280;52474;52.236;5.114;2022-07-17T13:03:34;102733.00;;;31.44;33.32